Data for 05/21/2013

Time Sea-Level Adjusted Pressure Absolute Pressure Temperature Relative Humidity Dew Point   
(mb) (inHg) (mb) (inHg) (C) (F) (%) (C) (F)
00:05 1021 30.15 850 25.1 6.5 43.6 84 4 39.2
00:10 1021 30.15 850 25.1 6.2 43.2 85 3.9 39
00:15 1021 30.15 850 25.1 6.1 43 85 3.7 38.7
00:20 1021 30.15 850 25.1 6.1 42.9 84 3.5 38.4
00:25 1021 30.15 850 25.1 6 42.9 83 3.3 38
00:30 1021 30.15 850 25.1 6.1 43 82 3.2 37.8
00:35 1021 30.15 850 25.1 6 42.9 83 3.3 38
00:40 1021 30.15 850 25.1 6 42.8 84 3.5 38.3
00:45 1021 30.15 850 25.1 6.1 43 82 3.3 38
00:50 1021 30.15 850 25.1 6 42.9 81 3.1 37.5
00:55 1021 30.15 850 25.1 5.8 42.4 83 3.1 37.5
01:00 1021 30.15 850 25.1 5.6 42.1 84 3.2 37.7
01:05 1021 30.15 850 25.1 5.7 42.3 84 3.2 37.8
01:10 1021 30.15 850 25.1 5.8 42.5 84 3.3 38
01:15 1021 30.15 850 25.1 5.7 42.2 85 3.4 38.1
01:20 1021 30.15 850 25.1 5.5 41.9 85 3.1 37.7
01:25 1021 30.15 850 25.1 5.8 42.4 83 3.1 37.5
01:30 1021 30.15 850 25.1 6 42.7 83 3.3 37.9
01:35 1021 30.15 850 25.1 6.1 42.9 82 3.2 37.8
01:40 1021 30.15 850 25.1 6 42.8 82 3.2 37.7
01:45 1021 30.15 850 25.1 6 42.7 82 3.2 37.7
01:50 1021 30.15 850 25.1 5.9 42.6 83 3.2 37.8
01:55 1021 30.15 850 25.1 5.8 42.5 83 3.1 37.6
02:00 1021 30.15 850 25.1 5.8 42.4 83 3.1 37.6
02:05 1020 30.12 850 25.1 5.7 42.3 83 3.1 37.5
02:10 1020 30.12 850 25.1 5.8 42.5 82 3 37.3
02:15 1020 30.12 850 25.1 5.7 42.3 82 2.9 37.3
02:20 1020 30.12 850 25.1 5.2 41.3 85 2.9 37.2
02:25 1020 30.12 850 25.1 4.8 40.6 86 2.7 36.9
02:30 1020 30.12 850 25.1 4.9 40.8 86 2.8 37
02:35 1020 30.12 850 25.1 4.8 40.7 86 2.7 36.8
02:40 1020 30.12 850 25.1 4.9 40.7 84 2.4 36.3
02:45 1020 30.12 849 25.07 5.2 41.4 81 2.3 36.1
02:50 1020 30.12 849 25.07 5.6 42 81 2.6 36.6
02:55 1020 30.12 849 25.07 5.7 42.3 80 2.6 36.7
03:00 1020 30.12 849 25.07 5.6 42.1 81 2.7 36.8
03:05 1020 30.12 849 25.07 5.3 41.5 83 2.6 36.7
03:10 1020 30.12 849 25.07 5.4 41.7 83 2.7 36.9
03:15 1020 30.12 849 25.07 5.3 41.6 83 2.6 36.8
03:20 1020 30.12 849 25.07 5.1 41.1 84 2.6 36.6
03:25 1020 30.12 849 25.07 5 41 83 2.4 36.4
03:30 1020 30.12 849 25.07 5 41 84 2.5 36.4
03:35 1020 30.12 849 25.07 5.2 41.3 83 2.5 36.4
03:40 1020 30.12 849 25.07 5.3 41.6 82 2.4 36.4
03:45 1020 30.12 849 25.07 5.2 41.4 82 2.5 36.5
03:50 1020 30.12 849 25.07 4.8 40.6 84 2.2 36
03:55 1020 30.12 849 25.07 4.4 39.8 85 2 35.7
04:00 1020 30.12 849 25.07 4.3 39.7 84 1.9 35.4
04:05 1020 30.12 849 25.07 4.5 40.2 83 1.9 35.4
04:10 1020 30.12 849 25.07 4.9 40.8 83 2.2 36
04:15 1020 30.12 849 25.07 4.9 40.7 83 2.2 36
04:20 1020 30.12 849 25.07 4.9 40.9 82 2.1 35.8
04:25 1020 30.12 849 25.07 4.8 40.6 83 2.2 35.9
04:30 1019 30.09 849 25.07 4.5 40 84 2 35.6
04:35 1019 30.09 849 25.07 4.3 39.7 84 1.8 35.3
04:40 1019 30.09 849 25.07 4.6 40.2 83 1.9 35.4
04:45 1019 30.09 849 25.07 4.7 40.4 83 2 35.6
04:50 1019 30.09 849 25.07 4.5 40 84 2.1 35.7
04:55 1020 30.12 849 25.07 4.3 39.7 85 2.1 35.7
05:00 1020 30.12 849 25.07 4.3 39.8 85 2 35.6
05:05 1020 30.12 849 25.07 4.3 39.8 86 2.1 35.8
05:10 1020 30.12 849 25.07 4.4 40 85 2.1 35.9
05:15 1020 30.12 849 25.07 4.9 40.8 85 2.5 36.5
05:20 1019 30.09 849 25.07 5.4 41.8 82 2.7 36.8
05:25 1019 30.09 849 25.07 5.8 42.4 80 2.6 36.7
05:30 1019 30.09 849 25.07 5.6 42.1 80 2.5 36.5
05:35 1019 30.09 849 25.07 5.4 41.7 82 2.5 36.5
05:40 1019 30.09 849 25.07 5.8 42.5 81 2.8 37
05:45 1019 30.09 849 25.07 6.3 43.4 79 3 37.3
05:50 1019 30.09 849 25.07 6.5 43.7 80 3.2 37.8
05:55 1019 30.09 849 25.07 6.6 43.8 80 3.3 38
06:00 1019 30.09 849 25.07 6.6 43.8 81 3.5 38.3
06:05 1019 30.09 849 25.07 6.7 44 80 3.5 38.3
06:10 1019 30.09 849 25.07 6.8 44.3 79 3.5 38.3
06:15 1019 30.09 849 25.07 7 44.6 79 3.5 38.3
06:20 1019 30.09 849 25.07 7.3 45.1 78 3.7 38.6
06:25 1019 30.09 849 25.07 7.6 45.6 77 3.7 38.7
06:30 1019 30.09 849 25.07 7.8 46.1 75 3.8 38.8
06:35 1019 30.09 849 25.07 8 46.5 74 3.8 38.8
06:40 1019 30.09 849 25.07 8.3 46.9 75 4.2 39.5
06:45 1019 30.09 849 25.07 8.7 47.6 73 4.1 39.5
06:50 1019 30.09 849 25.07 9.1 48.4 73 4.5 40
06:55 1019 30.09 849 25.07 9 48.2 71 4.1 39.3
07:00 1019 30.09 849 25.07 9.4 48.9 70 4.2 39.5
07:05 1019 30.09 848 25.04 9.6 49.4 67 3.9 39
07:10 1019 30.09 848 25.04 9.6 49.2 67 3.7 38.7
07:15 1019 30.09 848 25.04 10.2 50.3 66 4.1 39.3
07:20 1019 30.09 848 25.04 10.1 50.2 67 4.2 39.6
07:25 1019 30.09 848 25.04 9.5 49.1 69 4.1 39.4
07:30 1019 30.09 848 25.04 9.8 49.7 65 3.6 38.5
07:35 1019 30.09 848 25.04 9.9 49.7 65 3.7 38.7
07:40 1019 30.09 848 25.04 10.2 50.3 66 4.2 39.6
07:45 1019 30.09 848 25.04 10.7 51.2 62 3.7 38.7
07:50 1019 30.09 848 25.04 10.9 51.6 63 4.3 39.7
07:55 1019 30.09 848 25.04 10.9 51.7 63 4.2 39.6
08:00 1019 30.09 848 25.04 11.4 52.5 59 3.8 38.9
08:05 1019 30.09 848 25.04 11.3 52.4 59 3.8 38.8
08:10 1019 30.09 848 25.04 11.6 53 59 3.9 39.1
08:15 1019 30.09 848 25.04 11.9 53.4 56 3.4 38
08:20 1019 30.09 848 25.04 12.1 53.7 56 3.6 38.5
08:25 1018 30.06 848 25.04 12.3 54.1 53 3 37.5
08:30 1018 30.06 848 25.04 12.5 54.5 51 2.8 37
08:35 1018 30.06 848 25.04 12.4 54.3 52 2.8 37
08:40 1018 30.06 848 25.04 12.6 54.7 49 2.1 35.8
08:45 1018 30.06 848 25.04 12.8 55 45 1.1 34
08:50 1018 30.06 848 25.04 12.9 55.1 42 0.3 32.5
08:55 1018 30.06 847 25.01 13 55.4 40 -0.3 31.5
09:00 1018 30.06 847 25.01 13 55.3 39 -0.7 30.7
09:05 1018 30.06 847 25.01 13 55.3 40 -0.2 31.7
09:10 1018 30.06 847 25.01 13.3 55.9 39 -0.1 31.8
09:15 1018 30.06 847 25.01 13.2 55.8 42 0.6 33.1
09:20 1018 30.06 847 25.01 13.3 55.9 43 1 33.8
09:25 1018 30.06 847 25.01 13.2 55.7 45 1.4 34.5
09:30 1018 30.06 847 25.01 13.4 56.2 44 1.6 34.9
09:35 1018 30.06 847 25.01 13.5 56.4 44 1.7 35.1
09:40 1018 30.06 847 25.01 13.9 57 44 2 35.6
09:45 1018 30.06 847 25.01 13.8 56.8 47 2.7 36.8
09:50 1018 30.06 847 25.01 13.5 56.3 48 2.8 37.1
09:55 1017 30.03 847 25.01 13.7 56.7 45 2.1 35.9
10:00 1017 30.03 847 25.01 13.9 57.1 45 2.3 36.2
10:05 1017 30.03 847 25.01 14 57.2 45 2.4 36.3
10:10 1017 30.03 847 25.01 14 57.1 46 2.5 36.5
10:15 1017 30.03 847 25.01 14.3 57.7 43 2 35.5
10:20 1017 30.03 846 24.98 14.4 58 44 2.5 36.5
10:25 1017 30.03 846 24.98 14.6 58.2 44 2.6 36.6
10:30 1017 30.03 846 24.98 14.8 58.6 44 2.7 36.8
10:35 1017 30.03 846 24.98 15 59.1 43 2.6 36.7
10:40 1017 30.03 846 24.98 15 59.1 43 2.8 37
10:45 1017 30.03 846 24.98 14.9 58.9 43 2.6 36.7
10:50 1017 30.03 846 24.98 15.2 59.4 42 2.6 36.7
10:55 1017 30.03 846 24.98 15.3 59.5 42 2.6 36.7
11:00 1017 30.03 846 24.98 15.4 59.7 42 2.7 36.9
11:05 1017 30.03 846 24.98 15.4 59.7 42 2.6 36.6
11:10 1017 30.03 846 24.98 15.8 60.5 41 2.8 37
11:15 1017 30.03 846 24.98 16.1 60.9 41 3 37.5
11:20 1017 30.03 846 24.98 16 60.8 39 2.3 36.1
11:25 1017 30.03 846 24.98 16 60.9 40 2.5 36.5
11:30 1017 30.03 846 24.98 16 60.8 41 2.7 36.9
11:35 1017 30.03 846 24.98 16 60.7 40 2.6 36.8
11:40 1016 30 846 24.98 16 60.8 39 2.3 36.2
11:45 1016 30 846 24.98 16.2 61.2 41 3 37.5
11:50 1016 30 846 24.98 15.9 60.6 40 2.4 36.4
11:55 1016 30 845 24.95 15.9 60.5 42 3.1 37.6
12:00 1016 30 845 24.95 15.4 59.7 41 2.4 36.4
12:05 1016 30 845 24.95 15.4 59.7 42 2.6 36.8
12:10 1016 30 845 24.95 15.2 59.4 44 3.3 37.9
12:15 1016 30 845 24.95 15.2 59.4 51 5.2 41.4
12:20 1016 30 845 24.95 15 59.1 50 4.9 40.9
12:25 1016 30 845 24.95 15.1 59.1 51 5.2 41.3
12:30 1016 30 845 24.95 15.6 60 50 5.2 41.4
12:35 1016 30 845 24.95 16.2 61.2 47 4.9 40.9
12:40 1016 30 845 24.95 16.8 62.3 43 4.3 39.8
12:45 1015 29.97 845 24.95 16.7 62.1 41 3.6 38.6
12:50 1015 29.97 845 24.95 17 62.5 37 2.4 36.4
12:55 1015 29.97 844 24.92 17.2 62.9 37 2.5 36.6
13:00 1015 29.97 844 24.92 17.2 62.9 36 2.2 36
13:05 1015 29.97 844 24.92 17.4 63.3 38 3.1 37.5
13:10 1015 29.97 844 24.92 17.1 62.8 38 2.9 37.2
13:15 1015 29.97 844 24.92 17.4 63.4 36 2.2 36
13:20 1015 29.97 844 24.92 17.6 63.6 39 3.6 38.5
13:25 1015 29.97 844 24.92 17.9 64.1 37 3.2 37.8
13:30 1015 29.97 844 24.92 17.7 63.8 35 2.2 36
13:35 1015 29.97 844 24.92 17.8 64 36 2.5 36.5
13:40 1015 29.97 844 24.92 17.8 64.1 34 2 35.6
13:45 1015 29.97 844 24.92 17.6 63.7 34 1.9 35.4
13:50 1014 29.94 844 24.92 17.9 64.2 33 1.6 34.9
13:55 1014 29.94 844 24.92 17.8 64 33 1.4 34.5
14:00 1014 29.94 844 24.92 17.9 64.2 32 0.9 33.7
14:05 1014 29.94 844 24.92 17.9 64.3 32 1 33.7
14:10 1014 29.94 843 24.89 17.8 64.1 33 1.6 34.9
14:15 1014 29.94 844 24.92 18.2 64.7 32 1.2 34.1
14:20 1014 29.94 844 24.92 18.2 64.7 31 1 33.8
14:25 1014 29.94 843 24.89 18.2 64.8 31 1.1 33.9
14:30 1014 29.94 843 24.89 17.6 63.6 32 0.8 33.5
14:35 1014 29.94 843 24.89 17.5 63.4 31 0.4 32.6
14:40 1014 29.94 843 24.89 17.7 63.9 32 0.8 33.4
14:45 1014 29.94 843 24.89 17.2 63 32 0.4 32.7
14:50 1014 29.94 843 24.89 17.1 62.7 33 0.6 33.1
14:55 1014 29.94 843 24.89 17 62.5 32 0.1 32.2
15:00 1014 29.94 843 24.89 16.8 62.2 32 0.2 32.4
15:05 1014 29.94 843 24.89 17 62.7 32 0.4 32.8
15:10 1014 29.94 843 24.89 17.4 63.3 31 0.1 32.1
15:15 1013 29.91 843 24.89 17.6 63.8 31 0.4 32.8
15:20 1013 29.91 843 24.89 17.7 63.9 31 0.4 32.7
15:25 1013 29.91 842 24.86 17.7 63.9 31 0.5 33
15:30 1013 29.91 842 24.86 17.5 63.6 30 0 32
15:35 1013 29.91 842 24.86 17.5 63.5 31 0.3 32.6
15:40 1013 29.91 842 24.86 17.6 63.7 30 0.1 32.1
15:45 1013 29.91 842 24.86 17.7 63.9 29 -0.6 30.9
15:50 1013 29.91 842 24.86 17.2 62.9 29 -0.8 30.5
15:55 1013 29.91 842 24.86 17.2 63 29 -1 30.3
16:00 1013 29.91 842 24.86 17.2 62.9 30 -0.6 30.9
16:05 1013 29.91 842 24.86 16.9 62.4 30 -0.8 30.5
16:10 1013 29.91 842 24.86 16.9 62.4 29 -1.1 30
16:15 1013 29.91 842 24.86 16.9 62.5 29 -0.9 30.4
16:20 1013 29.91 842 24.86 17.1 62.7 29 -0.8 30.5
16:25 1013 29.91 842 24.86 17.2 63 28 -1.3 29.7
16:30 1013 29.91 842 24.86 17.2 63 28 -1.1 30
16:35 1012 29.88 842 24.86 17.3 63.1 28 -1.3 29.7
16:40 1012 29.88 842 24.86 17.2 62.9 28 -1.3 29.6
16:45 1012 29.88 842 24.86 16.9 62.3 28 -1.5 29.3
16:50 1012 29.88 842 24.86 16.5 61.8 29 -1.5 29.3
16:55 1012 29.88 841 24.83 16.5 61.6 29 -1.6 29.2
17:00 1012 29.88 841 24.83 16.4 61.6 29 -1.5 29.4
17:05 1012 29.88 841 24.83 16.5 61.7 29 -1.6 29.1
17:10 1012 29.88 841 24.83 16.6 61.8 29 -1.7 29
17:15 1012 29.88 841 24.83 16.4 61.5 29 -1.7 28.9
17:20 1012 29.88 841 24.83 16.3 61.4 29 -1.5 29.3
17:25 1012 29.88 841 24.83 16.2 61.1 29 -1.7 29
17:30 1012 29.88 841 24.83 16.1 60.9 30 -1.6 29.1
17:35 1012 29.88 841 24.83 15.9 60.7 29 -2.1 28.2
17:40 1012 29.88 841 24.83 15.9 60.6 29 -2.1 28.2
17:45 1012 29.88 841 24.83 15.8 60.4 29 -2.2 28.1
17:50 1012 29.88 841 24.83 15.7 60.3 28 -2.7 27.2
17:55 1012 29.88 841 24.83 15.7 60.2 28 -2.9 26.8
18:00 1012 29.88 841 24.83 15.7 60.2 28 -2.7 27.1
18:05 1012 29.88 841 24.83 15.6 60.1 28 -2.8 27
18:10 1012 29.88 841 24.83 15.5 59.9 28 -2.9 26.8
18:15 1012 29.88 841 24.83 15.5 59.8 28 -2.9 26.8
18:20 1012 29.88 841 24.83 15.4 59.7 29 -2.4 27.6
18:25 1012 29.88 841 24.83 15.3 59.5 29 -2.7 27.2
18:30 1012 29.88 841 24.83 15.2 59.4 28 -3.1 26.4
18:35 1012 29.88 841 24.83 15.2 59.4 27 -3.6 25.5
18:40 1012 29.88 841 24.83 15.2 59.4 28 -3.2 26.2
18:45 1012 29.88 841 24.83 15.1 59.1 29 -2.7 27.2
18:50 1012 29.88 841 24.83 14.9 58.9 29 -2.8 26.9
18:55 1012 29.88 841 24.83 14.9 58.8 29 -3.1 26.4
19:00 1012 29.88 841 24.83 14.8 58.7 29 -3 26.6
19:05 1012 29.88 841 24.83 14.7 58.5 28 -3.3 26.1
19:10 1012 29.88 841 24.83 14.7 58.4 28 -3.4 25.9
19:15 1012 29.88 841 24.83 14.6 58.2 28 -3.7 25.4
19:20 1012 29.88 841 24.83 14.5 58 28 -3.6 25.6
19:25 1012 29.88 841 24.83 14.4 57.9 28 -3.9 25
19:30 1012 29.88 841 24.83 14.3 57.8 28 -3.9 25
19:35 1012 29.88 841 24.83 14.3 57.7 28 -4.2 24.5
19:40 1012 29.88 841 24.83 14.2 57.6 27 -4.4 24.1
19:45 1012 29.88 841 24.83 14.1 57.4 27 -4.4 24.1
19:50 1012 29.88 842 24.86 14 57.3 26 -4.9 23.2
19:55 1012 29.88 842 24.86 14 57.2 27 -4.7 23.6
20:00 1012 29.88 842 24.86 13.9 57 27 -4.8 23.3
20:05 1012 29.88 842 24.86 13.8 56.8 27 -4.6 23.7
20:10 1012 29.88 842 24.86 13.7 56.6 27 -4.8 23.4
20:15 1012 29.88 842 24.86 13.6 56.5 27 -4.8 23.4
20:20 1012 29.88 842 24.86 13.5 56.4 28 -4.4 24
20:25 1012 29.88 842 24.86 13.4 56.2 32 -3 26.6
20:30 1012 29.88 842 24.86 13.3 55.9 35 -1.9 28.6
20:35 1013 29.91 842 24.86 13 55.5 37 -1.3 29.6
20:40 1013 29.91 842 24.86 12.9 55.2 39 -0.6 30.8
20:45 1013 29.91 842 24.86 12.7 54.9 41 -0.2 31.7
20:50 1013 29.91 842 24.86 12.6 54.7 41 -0.2 31.6
20:55 1013 29.91 842 24.86 12.5 54.6 42 0.1 32.2
21:00 1013 29.91 842 24.86 12.4 54.3 42 0 32.1
21:05 1013 29.91 842 24.86 12.3 54.1 42 -0.1 31.8
21:10 1013 29.91 843 24.89 12.2 53.9 42 -0.4 31.2
21:15 1013 29.91 843 24.89 12.1 53.7 42 -0.4 31.3
21:20 1013 29.91 843 24.89 11.9 53.5 42 -0.4 31.3
21:25 1013 29.91 842 24.86 11.8 53.2 43 -0.4 31.3
21:30 1013 29.91 842 24.86 11.6 52.9 43 -0.6 30.9
21:35 1013 29.91 843 24.89 11.5 52.7 43 -0.7 30.7
21:40 1013 29.91 843 24.89 11.4 52.4 43 -0.8 30.6
21:45 1013 29.91 843 24.89 11.2 52.2 43 -0.8 30.6
21:50 1013 29.91 843 24.89 11 51.9 44 -0.8 30.6
21:55 1014 29.94 843 24.89 10.8 51.5 46 -0.4 31.3
22:00 1014 29.94 843 24.89 10.7 51.3 44 -1 30.1
22:05 1013 29.91 843 24.89 10.7 51.2 44 -1 30.2
22:10 1013 29.91 842 24.86 10.6 51 45 -0.8 30.5
22:15 1013 29.91 842 24.86 10.4 50.8 45 -0.8 30.5
22:20 1013 29.91 842 24.86 10.4 50.7 46 -0.6 31
22:25 1013 29.91 842 24.86 10.2 50.4 48 -0.3 31.5
22:30 1013 29.91 842 24.86 10.1 50.2 48 -0.2 31.6
22:35 1013 29.91 842 24.86 10.1 50.2 49 -0.1 31.7
22:40 1013 29.91 842 24.86 10.1 50.1 50 0.1 32.2
22:45 1013 29.91 842 24.86 10 50 51 0.3 32.6
22:50 1013 29.91 842 24.86 9.8 49.7 52 0.5 33
22:55 1013 29.91 842 24.86 9.8 49.6 53 0.6 33
23:00 1013 29.91 842 24.86 9.7 49.4 54 0.8 33.5
23:05 1013 29.91 842 24.86 9.6 49.2 54 0.8 33.5
23:10 1013 29.91 842 24.86 9.5 49 55 1 33.8
23:15 1013 29.91 842 24.86 9.3 48.8 56 1.1 34
23:20 1013 29.91 842 24.86 9.3 48.7 57 1.2 34.1
23:25 1013 29.91 842 24.86 9.2 48.5 58 1.4 34.5
23:30 1013 29.91 842 24.86 9 48.2 59 1.5 34.6
23:35 1013 29.91 842 24.86 9 48.1 60 1.6 34.8
23:40 1013 29.91 842 24.86 8.9 48 61 1.7 35.1
23:45 1013 29.91 842 24.86 8.8 47.8 62 1.9 35.5
23:50 1013 29.91 842 24.86 8.7 47.7 63 2 35.6
23:55 1013 29.91 842 24.86 8.7 47.6 63 1.9 35.5
24:00 1012 29.88 842 24.86 8.6 47.6 63 2 35.6